createdAt,value
2018-09-02T00:00:53.484Z,3.77
2018-09-02T00:03:22.329Z,3.73
2018-09-02T00:05:51.051Z,4.87
2018-09-02T00:08:19.669Z,3.90
2018-09-02T00:10:48.552Z,3.40
2018-09-02T00:13:17.299Z,4.17
2018-09-02T00:15:46.010Z,3.73
2018-09-02T00:18:14.734Z,4.03
2018-09-02T00:20:43.362Z,3.87
2018-09-02T00:23:12.150Z,3.77
2018-09-02T00:25:40.992Z,4.07
2018-09-02T00:28:09.838Z,4.17
2018-09-02T00:30:38.775Z,4.00
2018-09-02T00:33:07.727Z,4.27
2018-09-02T00:35:36.622Z,3.67
2018-09-02T00:38:05.640Z,4.00
2018-09-02T00:40:34.738Z,3.77
2018-09-02T00:43:03.675Z,3.80
2018-09-02T00:45:32.361Z,3.50
2018-09-02T00:48:01.154Z,3.83
2018-09-02T00:50:29.837Z,3.87
2018-09-02T00:52:58.563Z,4.10
2018-09-02T00:55:27.465Z,4.07
2018-09-02T00:57:56.394Z,3.60
2018-09-02T01:00:25.502Z,4.20
2018-09-02T01:02:54.496Z,4.00
2018-09-02T01:05:23.521Z,3.97
2018-09-02T01:07:52.293Z,4.03
2018-09-02T01:10:21.178Z,4.13
2018-09-02T01:12:50.050Z,4.43
2018-09-02T01:15:18.702Z,3.83
2018-09-02T01:17:47.981Z,3.90
2018-09-02T01:20:16.724Z,3.83
2018-09-02T01:22:45.418Z,4.07
2018-09-02T01:25:14.321Z,4.10
2018-09-02T01:27:42.968Z,3.93
2018-09-02T01:30:11.994Z,4.23
2018-09-02T01:32:40.890Z,4.70
2018-09-02T01:35:14.098Z,3.97
2018-09-02T01:37:42.756Z,4.40
2018-09-02T01:40:11.566Z,4.00
2018-09-02T01:42:40.514Z,4.33
2018-09-02T01:45:09.284Z,4.40
2018-09-02T01:47:38.399Z,4.73
2018-09-02T01:50:07.198Z,4.57
2018-09-02T01:52:35.894Z,4.20
2018-09-02T01:55:04.654Z,3.90
2018-09-02T01:57:33.272Z,4.70
2018-09-02T02:00:02.159Z,4.27
2018-09-02T02:02:31.030Z,4.23
2018-09-02T02:04:59.734Z,4.20
2018-09-02T02:07:28.656Z,4.10
2018-09-02T02:09:57.609Z,4.37
2018-09-02T02:12:26.426Z,4.17
2018-09-02T02:14:55.139Z,4.27
2018-09-02T02:17:23.853Z,4.73
2018-09-02T02:19:52.548Z,4.47
2018-09-02T02:22:21.286Z,4.37
2018-09-02T02:24:50.219Z,4.10
2018-09-02T02:27:18.931Z,4.03
2018-09-02T02:29:47.640Z,4.37
2018-09-02T02:32:16.532Z,4.17
2018-09-02T02:34:45.393Z,4.30
2018-09-02T02:37:14.499Z,4.40
2018-09-02T02:39:43.162Z,4.30
2018-09-02T02:42:12.048Z,3.77
2018-09-02T02:44:40.730Z,3.90
2018-09-02T02:47:09.679Z,4.10
2018-09-02T02:49:38.622Z,4.17
2018-09-02T02:52:07.438Z,4.07
2018-09-02T02:54:36.514Z,4.10
2018-09-02T02:57:05.468Z,4.00
2018-09-02T02:59:34.186Z,4.30
2018-09-02T03:02:03.268Z,3.90
2018-09-02T03:04:31.873Z,4.30
2018-09-02T03:07:00.661Z,3.83
2018-09-02T03:09:29.619Z,4.03
2018-09-02T03:11:58.380Z,4.33
2018-09-02T03:14:27.586Z,4.50
2018-09-02T03:16:56.713Z,4.33
2018-09-02T03:19:25.447Z,4.37
2018-09-02T03:21:54.356Z,4.27
2018-09-02T03:24:23.006Z,3.70
2018-09-02T03:26:51.723Z,4.43
2018-09-02T03:29:20.430Z,4.13
2018-09-02T03:31:49.338Z,4.67
2018-09-02T03:34:18.074Z,4.03
2018-09-02T03:36:46.782Z,4.30
2018-09-02T03:39:15.680Z,4.83
2018-09-02T03:41:45.167Z,4.20
2018-09-02T03:44:15.843Z,4.43
2018-09-02T03:46:44.844Z,4.47
2018-09-02T03:49:13.590Z,4.13
2018-09-02T03:51:42.670Z,4.30
2018-09-02T03:54:11.437Z,4.30
2018-09-02T03:56:40.616Z,4.33
2018-09-02T03:59:09.275Z,4.50
2018-09-02T04:01:37.946Z,4.40
2018-09-02T04:04:06.639Z,4.27
2018-09-02T04:06:35.298Z,4.27
2018-09-02T04:09:05.237Z,4.03
2018-09-02T04:11:34.552Z,4.37
2018-09-02T04:14:03.505Z,3.97
2018-09-02T04:16:32.193Z,4.50
2018-09-02T04:19:00.949Z,5.00
2018-09-02T04:21:30.246Z,4.60
2018-09-02T04:23:58.894Z,4.33
2018-09-02T04:26:27.819Z,4.40
2018-09-02T04:28:56.523Z,4.47
2018-09-02T04:31:25.234Z,4.47
2018-09-02T04:33:54.081Z,4.03
2018-09-02T04:36:22.836Z,4.77
2018-09-02T04:38:51.593Z,4.67
2018-09-02T04:41:20.529Z,5.13
2018-09-02T04:43:49.576Z,4.53
2018-09-02T04:46:18.199Z,4.90
2018-09-02T04:48:47.122Z,4.33
2018-09-02T04:51:16.014Z,4.27
2018-09-02T04:53:44.797Z,4.67
2018-09-02T04:56:13.825Z,4.30
2018-09-02T04:58:42.475Z,5.00
2018-09-02T05:01:11.245Z,4.70
2018-09-02T05:03:40.390Z,4.87
2018-09-02T05:06:09.001Z,4.67
2018-09-02T05:08:37.914Z,4.73
2018-09-02T05:11:06.667Z,4.83
2018-09-02T05:13:35.350Z,4.37
2018-09-02T05:16:04.031Z,4.17
2018-09-02T05:18:32.758Z,4.30
2018-09-02T05:21:01.373Z,4.33
2018-09-02T05:23:30.024Z,4.20
2018-09-02T05:25:58.883Z,4.10
2018-09-02T05:28:27.571Z,4.53
2018-09-02T05:30:56.484Z,4.43
2018-09-02T05:33:25.085Z,4.00
2018-09-02T05:35:54.000Z,4.50
2018-09-02T05:38:22.618Z,4.33
2018-09-02T05:40:51.266Z,4.60
2018-09-02T05:43:19.893Z,4.30
2018-09-02T05:45:48.690Z,5.30
2018-09-02T05:48:17.625Z,4.33
2018-09-02T05:50:46.514Z,4.77
2018-09-02T05:53:15.178Z,4.37
2018-09-02T05:55:44.109Z,4.17
2018-09-02T05:58:12.774Z,4.60
2018-09-02T06:00:41.506Z,4.80
2018-09-02T06:03:10.306Z,4.30
2018-09-02T06:05:39.166Z,4.57
2018-09-02T06:08:07.810Z,4.50
2018-09-02T06:10:36.539Z,5.10
2018-09-02T06:13:05.282Z,4.50
2018-09-02T06:15:34.346Z,4.30
2018-09-02T06:18:03.323Z,4.70
2018-09-02T06:20:31.993Z,4.80
2018-09-02T06:23:00.702Z,4.70
2018-09-02T06:25:29.397Z,5.07
2018-09-02T06:27:58.044Z,5.03
2018-09-02T06:30:26.945Z,4.80
2018-09-02T06:32:55.720Z,5.17
2018-09-02T06:35:24.754Z,4.90
2018-09-02T06:37:53.498Z,5.43
2018-09-02T06:40:22.218Z,4.87
2018-09-02T06:42:50.870Z,5.90
2018-09-02T06:45:19.573Z,5.33
2018-09-02T06:47:48.373Z,5.77
2018-09-02T06:50:17.354Z,5.43
2018-09-02T06:52:45.998Z,6.00
2018-09-02T06:55:14.857Z,6.70
2018-09-02T06:57:43.475Z,6.57
2018-09-02T07:00:12.169Z,6.20
2018-09-02T07:02:40.879Z,6.23
2018-09-02T07:05:09.701Z,6.17
2018-09-02T07:07:38.615Z,6.33
2018-09-02T07:10:07.277Z,6.00
2018-09-02T07:12:36.237Z,6.53
2018-09-02T07:15:05.205Z,6.73
2018-09-02T07:17:33.925Z,6.17
2018-09-02T07:20:02.873Z,7.13
2018-09-02T07:22:31.891Z,6.73
2018-09-02T07:25:00.692Z,7.23
2018-09-02T07:27:29.689Z,7.63
2018-09-02T07:29:58.281Z,8.57
2018-09-02T07:32:27.199Z,7.77
2018-09-02T07:34:55.817Z,7.53
2018-09-02T07:37:24.634Z,7.53
2018-09-02T07:39:53.274Z,7.67
2018-09-02T07:42:22.445Z,7.50
2018-09-02T07:44:51.214Z,7.67
2018-09-02T07:47:20.111Z,7.37
2018-09-02T07:49:48.845Z,7.67
2018-09-02T07:52:17.699Z,8.20
2018-09-02T07:54:46.373Z,7.87
2018-09-02T07:57:15.062Z,7.00
2018-09-02T07:59:43.978Z,7.17
2018-09-02T08:02:12.608Z,8.03
2018-09-02T08:04:41.650Z,7.60
2018-09-02T08:07:10.407Z,7.37
2018-09-02T08:09:39.096Z,7.10
2018-09-02T08:12:07.834Z,7.00
2018-09-02T08:14:41.993Z,6.83
2018-09-02T08:17:48.843Z,6.77
2018-09-02T08:20:19.504Z,6.87
2018-09-02T08:22:50.431Z,6.70
2018-09-02T08:25:19.086Z,6.30
2018-09-02T08:27:48.726Z,6.33
2018-09-02T08:30:17.562Z,6.53
2018-09-02T08:32:46.265Z,6.40
2018-09-02T08:38:01.648Z,5.97
2018-09-02T08:40:30.626Z,6.37
2018-09-02T08:43:01.227Z,6.00
2018-09-02T08:45:30.240Z,5.63
2018-09-02T08:47:58.981Z,5.73
2018-09-02T08:50:28.932Z,5.83
2018-09-02T08:52:57.967Z,5.57
2018-09-02T08:55:26.588Z,5.07
2018-09-02T08:58:14.498Z,4.93
2018-09-02T09:00:43.161Z,4.30
2018-09-02T09:03:11.840Z,4.97
2018-09-02T09:05:40.449Z,4.63
2018-09-02T09:08:10.829Z,4.33
2018-09-02T09:10:39.334Z,3.93
2018-09-02T09:13:08.330Z,3.30
2018-09-02T09:15:38.206Z,3.40
2018-09-02T09:18:20.522Z,3.53
2018-09-02T09:20:49.406Z,3.07
2018-09-02T09:23:19.598Z,3.60
2018-09-02T09:25:48.609Z,3.57
2018-09-02T09:28:17.265Z,3.77
2018-09-02T09:30:45.920Z,3.13
2018-09-02T09:33:14.596Z,3.57
2018-09-02T09:35:43.216Z,3.50
2018-09-02T09:38:11.871Z,3.50
2018-09-02T09:40:55.392Z,3.40
2018-09-02T09:43:25.342Z,3.80
2018-09-02T09:45:54.276Z,3.67
2018-09-02T09:48:29.301Z,3.80
2018-09-02T09:50:58.862Z,4.10
2018-09-02T09:53:27.538Z,3.80
2018-09-02T09:55:56.250Z,3.33
2018-09-02T09:58:24.911Z,3.57
2018-09-02T10:00:53.599Z,3.73
2018-09-02T10:03:22.601Z,3.90
2018-09-02T10:05:51.820Z,3.57
2018-09-02T10:08:20.467Z,3.53
2018-09-02T10:10:49.131Z,4.23
2018-09-02T10:13:18.189Z,4.17
2018-09-02T10:15:47.666Z,3.57
2018-09-02T10:18:16.889Z,3.70
2018-09-02T10:20:46.546Z,3.50
2018-09-02T10:23:37.503Z,3.60
2018-09-02T10:26:06.383Z,3.30
2018-09-02T10:29:01.289Z,3.70
2018-09-02T10:31:30.975Z,3.80
2018-09-02T10:33:59.727Z,4.70
2018-09-02T10:39:29.537Z,4.00
2018-09-02T10:44:51.991Z,4.50
2018-09-02T10:47:31.556Z,3.83
2018-09-02T10:50:00.786Z,3.70
2018-09-02T10:52:33.699Z,3.50
2018-09-02T10:58:45.158Z,4.07
2018-09-02T11:01:13.846Z,4.10
2018-09-02T11:03:43.668Z,3.57
2018-09-02T11:06:14.733Z,3.67
2018-09-02T11:08:43.609Z,3.83
2018-09-02T11:11:12.292Z,4.07
2018-09-02T11:14:16.821Z,3.90
2018-09-02T11:16:45.637Z,3.40
2018-09-02T11:19:14.826Z,3.90
2018-09-02T11:21:44.963Z,3.60
2018-09-02T11:24:14.927Z,3.53
2018-09-02T11:26:43.677Z,3.50
2018-09-02T11:29:12.225Z,3.50
2018-09-02T11:31:40.649Z,3.90
2018-09-02T11:34:09.195Z,3.20
2018-09-02T11:36:37.593Z,3.73
2018-09-02T11:39:08.357Z,3.60
2018-09-02T11:41:36.749Z,3.77
2018-09-02T11:44:05.202Z,3.47
2018-09-02T11:46:33.634Z,3.70
2018-09-02T11:49:02.114Z,3.60
2018-09-02T11:51:30.717Z,3.67
2018-09-02T11:53:59.150Z,3.80
2018-09-02T11:56:27.830Z,4.00
2018-09-02T11:58:56.292Z,3.27
2018-09-02T12:01:25.854Z,3.60
2018-09-02T12:03:54.304Z,3.53
2018-09-02T12:06:22.733Z,3.30
2018-09-02T12:08:51.180Z,3.63
2018-09-02T12:11:19.755Z,4.13
2018-09-02T12:13:48.217Z,3.57
2018-09-02T12:16:16.642Z,3.40
2018-09-02T12:18:45.067Z,4.00
2018-09-02T12:21:13.536Z,3.53
2018-09-02T12:23:41.945Z,3.70
2018-09-02T12:26:11.388Z,3.77
2018-09-02T12:28:39.833Z,3.80
2018-09-02T12:31:08.286Z,3.77
2018-09-02T12:33:36.730Z,3.53
2018-09-02T12:36:07.717Z,3.60
2018-09-02T12:38:36.364Z,3.50
2018-09-02T12:41:04.830Z,3.90
2018-09-02T12:43:33.354Z,3.80
2018-09-02T12:46:01.818Z,3.87
2018-09-02T12:48:30.420Z,3.87
2018-09-02T12:50:58.852Z,3.60
2018-09-02T12:53:27.340Z,3.87
2018-09-02T12:55:55.792Z,3.53
2018-09-02T12:58:24.308Z,3.73
2018-09-02T13:00:52.733Z,3.90
2018-09-02T13:03:21.254Z,3.33
2018-09-02T13:05:49.679Z,3.10
2018-09-02T13:08:18.114Z,3.60
2018-09-02T13:10:46.597Z,3.57
2018-09-02T13:13:15.018Z,3.80
2018-09-02T13:15:43.456Z,3.20
2018-09-02T13:18:11.873Z,3.70
2018-09-02T13:20:40.319Z,3.80
2018-09-02T13:23:08.813Z,4.30
2018-09-02T13:25:37.305Z,3.47
2018-09-02T13:28:07.233Z,3.70
2018-09-02T13:30:35.697Z,3.50
2018-09-02T13:33:04.134Z,3.80
2018-09-02T13:35:32.829Z,3.77
2018-09-02T13:38:01.225Z,3.70
2018-09-02T13:40:30.902Z,3.20
2018-09-02T13:42:59.370Z,3.80
2018-09-02T13:45:27.941Z,3.50
2018-09-02T13:47:56.711Z,3.23
2018-09-02T13:50:25.233Z,3.60
2018-09-02T13:52:53.665Z,3.43
2018-09-02T13:55:22.103Z,3.23
2018-09-02T13:57:50.548Z,3.30
2018-09-02T14:00:19.066Z,3.73
2018-09-02T14:02:47.625Z,3.47
2018-09-02T14:05:16.133Z,3.37
2018-09-02T14:07:45.380Z,3.37
2018-09-02T14:10:13.889Z,3.07
2018-09-02T14:12:44.194Z,3.50
2018-09-02T14:15:14.310Z,3.25
2018-09-02T14:17:43.760Z,2.93
2018-09-02T14:20:13.507Z,3.67
2018-09-02T14:22:44.494Z,3.47
2018-09-02T14:25:13.518Z,3.30
2018-09-02T14:27:43.822Z,3.40
2018-09-02T14:30:13.194Z,3.60
2018-09-02T14:32:42.345Z,3.57
2018-09-02T14:35:11.879Z,3.20
2018-09-02T14:37:44.285Z,3.13
2018-09-02T14:40:13.834Z,3.00
2018-09-02T14:42:45.751Z,3.50
2018-09-02T14:45:14.671Z,3.60
2018-09-02T14:47:43.694Z,3.37
2018-09-02T14:50:13.443Z,3.47
2018-09-02T14:52:43.077Z,3.30
2018-09-02T14:55:13.195Z,3.37
2018-09-02T14:57:42.192Z,3.08
2018-09-02T15:00:13.188Z,2.70
2018-09-02T15:02:41.919Z,2.80
2018-09-02T15:05:12.251Z,2.85
2018-09-02T15:07:44.814Z,3.00
2018-09-02T15:10:13.910Z,3.27
2018-09-02T15:12:45.026Z,3.08
2018-09-02T15:15:15.246Z,3.30
2018-09-02T15:17:44.797Z,2.90
2018-09-02T15:20:14.254Z,3.10
2018-09-02T15:22:43.619Z,3.05
2018-09-02T15:25:13.536Z,3.20
2018-09-02T15:27:43.705Z,2.92
2018-09-02T15:30:13.529Z,3.50
2018-09-02T15:32:43.458Z,3.20
2018-09-02T15:35:18.081Z,2.83
2018-09-02T15:37:47.643Z,3.12
2018-09-02T15:40:17.248Z,3.17
2018-09-02T15:42:46.711Z,3.30
2018-09-02T15:45:16.535Z,2.85
2018-09-02T15:47:45.751Z,3.10
2018-09-02T15:50:15.132Z,2.97
2018-09-02T15:52:48.644Z,3.20
2018-09-02T15:55:18.223Z,2.73
2018-09-02T15:57:47.473Z,2.77
2018-09-02T16:00:18.834Z,2.57
2018-09-02T16:02:48.113Z,2.83
2018-09-02T16:05:17.536Z,2.77
2018-09-02T16:07:46.254Z,2.37
2018-09-02T16:10:15.999Z,2.80
2018-09-02T16:12:45.770Z,2.57
2018-09-02T16:15:15.369Z,2.70
2018-09-02T16:17:45.005Z,2.57
2018-09-02T16:20:14.092Z,2.70
2018-09-02T16:22:43.612Z,2.80
2018-09-02T16:25:13.496Z,2.50
2018-09-02T16:27:43.031Z,3.00
2018-09-02T16:30:11.920Z,2.50
2018-09-02T16:32:40.858Z,2.73
2018-09-02T16:35:10.390Z,2.70
2018-09-02T16:37:39.968Z,2.87
2018-09-02T16:40:08.950Z,2.87
2018-09-02T16:42:39.270Z,2.80
2018-09-02T16:45:08.077Z,3.00
2018-09-02T16:47:37.066Z,2.90
2018-09-02T16:50:06.574Z,2.60
2018-09-02T16:52:36.479Z,2.90
2018-09-02T16:55:07.343Z,2.67
2018-09-02T16:57:37.126Z,2.50
2018-09-02T17:00:06.466Z,2.90
2018-09-02T17:02:35.957Z,2.80
2018-09-02T17:05:07.200Z,3.00
2018-09-02T17:07:36.345Z,2.93
2018-09-02T17:10:06.289Z,2.47
2018-09-02T17:12:37.481Z,2.77
2018-09-02T17:15:07.866Z,2.67
2018-09-02T17:17:37.103Z,2.17
2018-09-02T17:20:09.801Z,2.57
2018-09-02T17:22:39.242Z,2.43
2018-09-02T17:25:08.330Z,2.80
2018-09-02T17:27:38.238Z,2.40
2018-09-02T17:30:07.129Z,2.70
2018-09-02T17:32:37.545Z,2.50
2018-09-02T17:35:07.355Z,2.50
2018-09-02T17:37:40.893Z,2.30
2018-09-02T17:40:10.551Z,2.60
2018-09-02T17:42:39.863Z,2.60
2018-09-02T17:45:11.029Z,2.40
2018-09-02T17:47:40.488Z,2.77
2018-09-02T17:50:10.525Z,2.40
2018-09-02T17:52:40.862Z,2.40
2018-09-02T17:55:11.636Z,2.63
2018-09-02T17:57:41.826Z,2.80
2018-09-02T18:00:12.757Z,2.50
2018-09-02T18:02:42.211Z,2.83
2018-09-02T18:05:11.583Z,2.70
2018-09-02T18:07:41.080Z,2.50
2018-09-02T18:10:10.856Z,2.53
2018-09-02T18:12:40.000Z,3.00
2018-09-02T18:15:09.741Z,2.80
2018-09-02T18:17:41.637Z,2.70
2018-09-02T18:20:10.181Z,2.60
2018-09-02T18:22:39.375Z,2.77
2018-09-02T18:25:08.703Z,2.60
2018-09-02T18:27:40.834Z,2.60
2018-09-02T18:30:11.829Z,2.37
2018-09-02T18:32:41.129Z,2.60
2018-09-02T18:35:10.168Z,2.60
2018-09-02T18:37:43.781Z,2.63
2018-09-02T18:40:16.813Z,2.40
2018-09-02T18:42:45.681Z,2.37
2018-09-02T18:45:15.348Z,2.60
2018-09-02T18:47:44.570Z,2.30
2018-09-02T18:52:47.524Z,2.47
2018-09-02T18:55:16.394Z,2.83
2018-09-02T18:57:46.273Z,2.20
2018-09-02T19:00:19.948Z,2.83
2018-09-02T19:02:50.118Z,2.40
2018-09-02T19:05:20.000Z,2.60
2018-09-02T19:07:48.945Z,2.53
2018-09-02T19:10:18.429Z,2.27
2018-09-02T19:12:48.672Z,2.57
2018-09-02T19:15:21.918Z,2.40
2018-09-02T19:17:52.162Z,2.40
2018-09-02T19:20:22.301Z,2.40
2018-09-02T19:22:52.078Z,2.30
2018-09-02T19:25:21.013Z,2.20
2018-09-02T19:27:50.300Z,2.30
2018-09-02T19:30:20.153Z,2.43
2018-09-02T19:32:49.497Z,2.50
2018-09-02T19:35:19.134Z,2.50
2018-09-02T19:37:48.078Z,2.60
2018-09-02T19:40:17.503Z,2.70
2018-09-02T19:42:46.597Z,2.40
2018-09-02T19:45:15.706Z,2.70
2018-09-02T19:47:46.117Z,2.80
2018-09-02T19:50:15.347Z,2.83
2018-09-02T19:52:44.457Z,2.50
2018-09-02T19:55:14.289Z,2.23
2018-09-02T19:57:42.934Z,2.50
2018-09-02T20:00:13.709Z,2.07
2018-09-02T20:02:43.915Z,2.60
2018-09-02T20:05:13.929Z,2.40
2018-09-02T20:07:43.000Z,2.70
2018-09-02T20:10:12.307Z,2.57
2018-09-02T20:12:41.913Z,2.90
2018-09-02T20:15:12.483Z,2.47
2018-09-02T20:17:42.533Z,2.70
2018-09-02T20:20:11.291Z,2.80
2018-09-02T20:22:40.187Z,2.80
2018-09-02T20:25:09.793Z,2.33
2018-09-02T20:27:38.597Z,2.80
2018-09-02T20:30:09.076Z,2.70
2018-09-02T20:32:38.145Z,2.57
2018-09-02T20:35:07.844Z,2.90
2018-09-02T20:37:36.745Z,2.50
2018-09-02T20:40:07.175Z,2.77
2018-09-02T20:42:37.110Z,3.00
2018-09-02T20:45:07.654Z,2.70
2018-09-02T20:47:37.309Z,2.97
2018-09-02T20:50:07.312Z,2.70
2018-09-02T20:52:36.985Z,2.73
2018-09-02T20:55:05.859Z,2.57
2018-09-02T20:57:35.157Z,2.60
2018-09-02T21:00:04.552Z,2.53
2018-09-02T21:02:34.122Z,2.80
2018-09-02T21:05:03.765Z,2.67
2018-09-02T21:07:33.277Z,3.17
2018-09-02T21:10:02.004Z,2.57
2018-09-02T21:12:31.280Z,2.60
2018-09-02T21:14:59.699Z,2.40
2018-09-02T21:17:28.098Z,3.00
2018-09-02T21:19:56.531Z,2.60
2018-09-02T21:22:24.933Z,2.67
2018-09-02T21:24:53.337Z,2.87
2018-09-02T21:27:21.742Z,3.10
2018-09-02T21:29:50.161Z,3.13
2018-09-02T21:32:18.574Z,2.90
2018-09-02T21:34:47.029Z,2.70
2018-09-02T21:37:15.463Z,2.90
2018-09-02T21:39:43.864Z,3.00
2018-09-02T21:42:12.270Z,2.93
2018-09-02T21:44:40.722Z,2.73
2018-09-02T21:47:09.144Z,2.80
2018-09-02T21:49:37.593Z,2.70
2018-09-02T21:52:06.131Z,2.87
2018-09-02T21:54:35.465Z,3.03
2018-09-02T21:57:03.864Z,2.90
2018-09-02T21:59:32.344Z,2.87
2018-09-02T22:02:00.799Z,2.90
2018-09-02T22:04:29.260Z,2.60
2018-09-02T22:06:57.738Z,3.20
2018-09-02T22:09:26.217Z,2.87
2018-09-02T22:11:54.651Z,2.80
2018-09-02T22:14:23.103Z,3.00
2018-09-02T22:16:51.562Z,3.00
2018-09-02T22:19:20.066Z,3.03
2018-09-02T22:21:48.545Z,3.00
2018-09-02T22:24:17.041Z,2.90
2018-09-02T22:26:45.453Z,3.03
2018-09-02T22:29:13.958Z,3.03
2018-09-02T22:31:42.377Z,3.37
2018-09-02T22:34:10.816Z,2.80
2018-09-02T22:36:39.232Z,2.80
2018-09-02T22:39:08.390Z,3.03
2018-09-02T22:41:36.912Z,2.70
2018-09-02T22:44:05.436Z,3.53
2018-09-02T22:46:33.856Z,2.80
2018-09-02T22:49:02.310Z,3.20
2018-09-02T22:51:31.835Z,3.23
2018-09-02T22:54:00.305Z,3.33
2018-09-02T22:56:28.713Z,3.00
2018-09-02T22:58:57.145Z,2.90
2018-09-02T23:01:25.654Z,2.57
2018-09-02T23:03:54.073Z,3.37
2018-09-02T23:06:22.541Z,2.67
2018-09-02T23:08:50.969Z,3.10
2018-09-02T23:11:19.449Z,2.93
2018-09-02T23:13:47.868Z,2.93
2018-09-02T23:16:16.333Z,2.93
2018-09-02T23:18:44.789Z,3.10
2018-09-02T23:21:13.276Z,3.00
2018-09-02T23:23:41.739Z,3.20
2018-09-02T23:26:10.192Z,2.60
2018-09-02T23:28:38.649Z,2.80
2018-09-02T23:31:07.084Z,2.70
2018-09-02T23:33:35.481Z,3.27
2018-09-02T23:36:03.969Z,3.10
2018-09-02T23:38:32.472Z,3.10
2018-09-02T23:41:00.903Z,3.10
2018-09-02T23:43:29.302Z,3.00
2018-09-02T23:45:57.724Z,2.80
2018-09-02T23:48:26.133Z,2.90
2018-09-02T23:50:54.606Z,3.10
2018-09-02T23:53:23.112Z,2.83
2018-09-02T23:55:51.578Z,2.90
2018-09-02T23:58:20.061Z,3.00
